Time;durP1;ratioP1;P1;durP2;ratioP2;P2;SDS_P1;SDS_P2;PMS_P1;PMS_P2;Temp;Humidity;BMP_temperature;BMP_pressure;BME280_temperature;BME280_humidity;BME280_pressure;Samples;Min_cycle;Max_cycle;Signal;HPM_P1;HPM_P2
2020/12/13 00:00:12;;;;;;;9.98;7.68;;;5.80;99.90;;;;;;5071263;28;20587;-77
2020/12/13 00:02:38;;;;;;;15.02;7.43;;;5.80;99.90;;;;;;5073864;28;20106;-78
2020/12/13 00:05:04;;;;;;;9.07;7.00;;;5.80;99.90;;;;;;5091523;28;20028;-79
2020/12/13 00:07:29;;;;;;;7.78;6.90;;;5.80;99.90;;;;;;5056010;28;20420;-78
2020/12/13 00:09:55;;;;;;;9.73;7.07;;;5.80;99.90;;;;;;5084188;28;20032;-77
2020/12/13 00:12:21;;;;;;;9.57;7.22;;;5.80;99.90;;;;;;5056922;28;20025;-75
2020/12/13 00:14:46;;;;;;;9.85;7.28;;;5.80;99.90;;;;;;5073826;28;20067;-77
2020/12/13 00:17:12;;;;;;;9.23;7.22;;;5.80;99.90;;;;;;5071787;28;20354;-76
2020/12/13 00:19:37;;;;;;;8.32;7.43;;;5.80;99.90;;;;;;5073646;28;20363;-77
2020/12/13 00:22:03;;;;;;;9.15;8.05;;;5.80;99.90;;;;;;5076746;28;20157;-77
2020/12/13 00:24:29;;;;;;;9.93;7.50;;;5.80;99.90;;;;;;5070390;28;20415;-76
2020/12/13 00:26:54;;;;;;;10.35;7.65;;;5.80;99.90;;;;;;5071055;28;20043;-79
2020/12/13 00:29:20;;;;;;;9.48;7.30;;;5.80;99.90;;;;;;5089192;28;20032;-74
2020/12/13 00:31:48;;;;;;;9.05;6.93;;;5.80;99.90;;;;;;5072410;28;20070;-76
2020/12/13 00:34:13;;;;;;;9.60;6.70;;;5.80;99.90;;;;;;5082265;28;20479;-76
2020/12/13 00:36:39;;;;;;;9.07;6.72;;;5.80;99.90;;;;;;5070642;28;20028;-76
2020/12/13 00:39:05;;;;;;;9.18;6.60;;;5.80;99.90;;;;;;5077050;28;20032;-77
2020/12/13 00:41:31;;;;;;;7.88;6.22;;;5.80;99.90;;;;;;5086226;28;20028;-77
2020/12/13 00:43:56;;;;;;;7.78;6.35;;;5.80;99.90;;;;;;5095011;28;20020;-77
2020/12/13 00:46:22;;;;;;;9.55;6.10;;;5.80;99.90;;;;;;5087940;28;20535;-74
2020/12/13 00:48:50;;;;;;;8.43;5.18;;;5.80;99.90;;;;;;5078570;28;20067;-77
2020/12/13 00:51:25;;;;;;;6.05;5.35;;;5.80;99.90;;;;;;5074879;28;20025;-77
2020/12/13 00:53:51;;;;;;;6.32;5.53;;;5.80;99.90;;;;;;5091270;28;20453;-77
2020/12/13 00:56:17;;;;;;;8.38;6.00;;;5.80;99.90;;;;;;5095024;28;20464;-77
2020/12/13 00:58:43;;;;;;;6.28;5.55;;;5.80;99.90;;;;;;5085124;28;20028;-76
2020/12/13 01:01:08;;;;;;;7.30;6.07;;;5.80;99.90;;;;;;5094646;28;20488;-77
2020/12/13 01:03:34;;;;;;;8.02;5.88;;;5.80;99.90;;;;;;5094866;28;20020;-77
2020/12/13 01:05:59;;;;;;;7.05;5.05;;;5.80;99.90;;;;;;5079447;28;20035;-78
2020/12/13 01:08:25;;;;;;;6.80;4.82;;;5.70;99.90;;;;;;5055920;28;20021;-77
2020/12/13 01:10:51;;;;;;;6.90;4.97;;;5.70;99.90;;;;;;5076011;28;20425;-77
2020/12/13 01:13:16;;;;;;;6.85;5.30;;;5.80;99.90;;;;;;5074805;28;20029;-77
2020/12/13 01:15:42;;;;;;;6.55;5.00;;;5.70;99.90;;;;;;5084926;28;20170;-78
2020/12/13 01:18:08;;;;;;;5.50;4.47;;;5.70;99.90;;;;;;5080333;28;20447;-77
2020/12/13 01:20:33;;;;;;;5.78;4.63;;;5.70;99.90;;;;;;5076043;28;20371;-77
2020/12/13 01:22:59;;;;;;;6.82;5.15;;;5.70;99.90;;;;;;5085261;28;20028;-77
2020/12/13 01:25:25;;;;;;;4.80;4.30;;;5.70;99.90;;;;;;5087227;28;20154;-74
2020/12/13 01:27:50;;;;;;;5.68;4.38;;;5.70;99.90;;;;;;5074334;28;20122;-76
2020/12/13 01:30:16;;;;;;;7.28;5.38;;;5.70;99.90;;;;;;5086039;28;20028;-77
2020/12/13 01:32:42;;;;;;;7.97;5.65;;;5.70;99.90;;;;;;5093064;28;20105;-77
2020/12/13 01:35:10;;;;;;;6.28;5.15;;;5.60;99.90;;;;;;5091929;28;20024;-76
2020/12/13 01:37:36;;;;;;;6.78;5.50;;;5.60;99.90;;;;;;5073244;28;20060;-77
2020/12/13 01:40:08;;;;;;;6.40;5.57;;;5.60;99.90;;;;;;5074243;28;20504;-76
2020/12/13 01:42:41;;;;;;;5.70;4.90;;;5.60;99.90;;;;;;5081693;28;20116;-77
2020/12/13 01:45:08;;;;;;;9.50;5.65;;;5.60;99.90;;;;;;5074246;28;20025;-76
2020/12/13 01:47:34;;;;;;;6.80;5.18;;;5.60;99.90;;;;;;5075572;28;20081;-76
2020/12/13 01:50:00;;;;;;;7.32;4.60;;;5.60;99.90;;;;;;5085437;28;20354;-77
2020/12/13 01:55:16;;;;;;;6.80;4.72;;;5.60;99.90;;;;;;5074311;28;20031;-77
2020/12/13 01:57:47;;;;;;;7.68;5.18;;;5.60;99.90;;;;;;5073103;28;20279;-77
2020/12/13 02:00:17;;;;;;;8.15;5.10;;;5.60;99.90;;;;;;5074267;28;20024;-77
2020/12/13 02:02:45;;;;;;;6.72;5.00;;;5.50;99.90;;;;;;5082905;28;20020;-77
2020/12/13 02:05:13;;;;;;;7.82;5.53;;;5.60;99.90;;;;;;5094652;28;20074;-76
2020/12/13 02:07:41;;;;;;;7.05;4.97;;;5.50;99.90;;;;;;5074493;28;20032;-77
2020/12/13 02:10:09;;;;;;;6.50;4.88;;;5.50;99.90;;;;;;5073537;28;20033;-77
2020/12/13 02:12:35;;;;;;;5.60;4.60;;;5.50;99.90;;;;;;5072803;28;20028;-76
2020/12/13 02:15:01;;;;;;;7.57;5.60;;;5.50;99.90;;;;;;5073418;28;20029;-77
2020/12/13 02:17:27;;;;;;;6.68;4.75;;;5.50;99.90;;;;;;5072331;28;20107;-74
2020/12/13 02:19:52;;;;;;;9.07;4.63;;;5.50;99.90;;;;;;5073521;28;20579;-77
2020/12/13 02:22:20;;;;;;;6.57;4.32;;;5.60;99.90;;;;;;5073175;28;20107;-75
2020/12/13 02:24:46;;;;;;;6.38;4.65;;;5.60;99.90;;;;;;5072851;28;20066;-77
2020/12/13 02:27:11;;;;;;;8.32;4.72;;;5.60;99.90;;;;;;5073233;28;20052;-76
2020/12/13 02:29:37;;;;;;;9.27;4.75;;;5.60;99.90;;;;;;5072524;28;20112;-76
2020/12/13 02:32:04;;;;;;;8.35;4.88;;;5.60;99.90;;;;;;5072845;28;20134;-76
2020/12/13 02:34:29;;;;;;;5.95;4.28;;;5.60;99.90;;;;;;5054534;28;20529;-75
2020/12/13 02:36:55;;;;;;;4.32;3.92;;;5.60;99.90;;;;;;5073432;28;20130;-76
2020/12/13 02:39:21;;;;;;;4.90;3.88;;;5.60;99.90;;;;;;5072786;28;20062;-76
2020/12/13 02:41:58;;;;;;;5.35;3.80;;;5.60;99.90;;;;;;5054986;28;20754;-78
2020/12/13 02:44:25;;;;;;;4.68;3.65;;;5.60;99.90;;;;;;5072622;28;20458;-74
2020/12/13 02:46:50;;;;;;;4.95;3.92;;;5.70;99.90;;;;;;5073052;28;20036;-77
2020/12/13 02:49:16;;;;;;;6.00;4.30;;;5.60;99.90;;;;;;5072275;28;20036;-77
2020/12/13 02:51:42;;;;;;;4.70;3.78;;;5.70;99.90;;;;;;5072079;28;20037;-77
2020/12/13 02:54:07;;;;;;;6.97;4.18;;;5.60;99.90;;;;;;5073147;28;20033;-77
2020/12/13 02:56:39;;;;;;;4.43;3.42;;;5.70;99.90;;;;;;5072142;28;20059;-76
2020/12/13 02:59:04;;;;;;;4.90;3.60;;;5.70;99.90;;;;;;5072583;28;20103;-76
2020/12/13 03:01:30;;;;;;;6.43;3.90;;;5.70;99.90;;;;;;5071813;28;20048;-76
2020/12/13 03:03:56;;;;;;;5.28;4.32;;;5.70;99.90;;;;;;5072009;28;20024;-76
2020/12/13 03:06:21;;;;;;;6.03;3.75;;;5.70;99.90;;;;;;5072418;28;20056;-75
2020/12/13 03:08:47;;;;;;;4.07;3.67;;;5.70;99.90;;;;;;5071568;28;20055;-77
2020/12/13 03:11:12;;;;;;;3.83;3.50;;;5.70;99.90;;;;;;5072616;28;20369;-77
2020/12/13 03:13:38;;;;;;;4.50;3.70;;;5.70;99.90;;;;;;5071480;28;20064;-77
2020/12/13 03:16:04;;;;;;;4.05;3.47;;;5.70;99.90;;;;;;5072554;28;20028;-77
2020/12/13 03:18:30;;;;;;;4.57;3.75;;;5.70;99.90;;;;;;5070781;28;20032;-77
2020/12/13 03:20:55;;;;;;;4.15;3.50;;;5.70;99.90;;;;;;5072385;28;20032;-77
2020/12/13 03:23:21;;;;;;;4.85;3.72;;;5.70;99.90;;;;;;5071876;28;20098;-77
2020/12/13 03:25:47;;;;;;;5.75;3.72;;;5.60;99.90;;;;;;5071643;28;20021;-77
2020/12/13 03:28:12;;;;;;;4.53;3.60;;;5.60;99.90;;;;;;5071936;28;20401;-77
2020/12/13 03:30:38;;;;;;;5.03;3.28;;;5.60;99.90;;;;;;5071373;28;20185;-77
2020/12/13 03:33:03;;;;;;;6.90;3.63;;;5.70;99.90;;;;;;5072009;28;20099;-77
2020/12/13 03:35:29;;;;;;;4.82;3.53;;;5.70;99.90;;;;;;5071048;28;20020;-74
2020/12/13 03:37:55;;;;;;;5.28;3.75;;;5.70;99.90;;;;;;5072318;28;20042;-77
2020/12/13 03:40:20;;;;;;;5.57;3.50;;;5.70;99.90;;;;;;5072068;28;20028;-77
2020/12/13 03:42:46;;;;;;;4.82;3.70;;;5.70;99.90;;;;;;5071021;28;20024;-76
2020/12/13 03:45:12;;;;;;;4.35;3.42;;;5.70;99.90;;;;;;5072046;28;20082;-76
2020/12/13 03:47:37;;;;;;;4.47;3.58;;;5.60;99.90;;;;;;5071235;28;20025;-76
2020/12/13 03:50:04;;;;;;;5.25;4.25;;;5.60;99.90;;;;;;5071307;28;20039;-77
2020/12/13 03:52:30;;;;;;;4.05;3.25;;;5.60;99.90;;;;;;5071008;28;20033;-74
2020/12/13 03:54:55;;;;;;;5.57;4.25;;;5.60;99.90;;;;;;5071874;28;20368;-78
2020/12/13 03:57:21;;;;;;;5.15;3.60;;;5.60;99.90;;;;;;5054367;28;20492;-77
2020/12/13 03:59:46;;;;;;;3.60;3.28;;;5.60;99.90;;;;;;5053060;28;20036;-78
2020/12/13 04:02:12;;;;;;;6.32;3.45;;;5.60;99.90;;;;;;5071639;28;20146;-78
2020/12/13 04:04:38;;;;;;;4.13;3.30;;;5.70;99.90;;;;;;5070711;28;20623;-77
2020/12/13 04:07:03;;;;;;;3.47;3.17;;;5.70;99.90;;;;;;5097963;28;20349;-77
2020/12/13 04:09:29;;;;;;;3.95;3.33;;;5.80;99.90;;;;;;5111678;28;20115;-75
2020/12/13 04:11:54;;;;;;;5.75;3.50;;;5.80;99.90;;;;;;5112123;28;20095;-78
2020/12/13 04:14:20;;;;;;;3.95;3.35;;;5.80;99.90;;;;;;5111602;28;20061;-77
2020/12/13 04:16:46;;;;;;;5.70;3.20;;;5.80;99.90;;;;;;5093326;28;20072;-78
2020/12/13 04:19:11;;;;;;;3.28;2.97;;;5.80;99.90;;;;;;5094458;28;20025;-76
2020/12/13 04:21:38;;;;;;;5.05;3.13;;;5.80;99.90;;;;;;5070758;28;20024;-77
2020/12/13 04:24:04;;;;;;;3.85;2.88;;;5.80;99.90;;;;;;5071317;28;20473;-77
2020/12/13 04:26:32;;;;;;;3.58;2.80;;;5.90;99.90;;;;;;5071140;28;20036;-75
2020/12/13 04:28:58;;;;;;;3.63;2.58;;;5.90;99.90;;;;;;5071054;28;20090;-77
2020/12/13 04:31:23;;;;;;;3.33;2.28;;;5.90;99.90;;;;;;5071304;28;20025;-77
2020/12/13 04:33:49;;;;;;;2.50;2.30;;;5.90;99.90;;;;;;5070878;28;20556;-76
2020/12/13 04:36:15;;;;;;;2.58;2.38;;;5.90;99.90;;;;;;5071310;28;20469;-77
2020/12/13 04:38:40;;;;;;;2.50;2.30;;;6.00;99.90;;;;;;5070372;28;20032;-77
2020/12/13 04:41:07;;;;;;;4.32;2.10;;;6.00;99.90;;;;;;5071638;28;20096;-77
2020/12/13 04:43:33;;;;;;;3.25;2.45;;;6.00;99.90;;;;;;5070794;28;20066;-77
2020/12/13 04:45:58;;;;;;;2.97;2.40;;;6.00;99.90;;;;;;5071198;28;20036;-77
2020/12/13 04:48:24;;;;;;;3.30;2.80;;;6.00;99.90;;;;;;5071049;28;20024;-76
2020/12/13 04:50:50;;;;;;;3.83;3.08;;;6.00;99.90;;;;;;5070331;28;20079;-76
2020/12/13 04:53:18;;;;;;;2.83;2.50;;;6.00;99.90;;;;;;5071137;28;20077;-76
2020/12/13 04:55:53;;;;;;;3.83;2.40;;;6.00;99.90;;;;;;5070537;28;20177;-77
2020/12/13 04:58:20;;;;;;;4.68;2.90;;;6.00;99.90;;;;;;5071371;28;20037;-76
2020/12/13 05:00:55;;;;;;;3.35;2.30;;;6.00;99.90;;;;;;5070392;28;20035;-76
2020/12/13 05:03:22;;;;;;;5.18;2.80;;;6.00;99.90;;;;;;5071424;28;20213;-76
2020/12/13 05:05:48;;;;;;;4.20;2.70;;;6.10;99.90;;;;;;5075639;28;20830;-76
2020/12/13 05:08:14;;;;;;;3.45;2.80;;;6.10;99.90;;;;;;5112160;28;20034;-76
2020/12/13 05:10:40;;;;;;;4.25;2.88;;;6.10;99.90;;;;;;5110837;28;20036;-77
2020/12/13 05:13:07;;;;;;;3.63;2.80;;;6.10;99.90;;;;;;5111632;28;20027;-76
2020/12/13 05:15:36;;;;;;;3.67;2.45;;;6.00;99.90;;;;;;5110952;28;20032;-75
2020/12/13 05:18:03;;;;;;;3.15;2.85;;;6.00;99.90;;;;;;5111361;28;20027;-76
2020/12/13 05:20:29;;;;;;;4.43;2.70;;;6.00;99.90;;;;;;5072771;28;20060;-75
2020/12/13 05:22:56;;;;;;;3.85;2.72;;;6.00;99.90;;;;;;5070598;28;20071;-75
2020/12/13 05:25:41;;;;;;;3.75;2.90;;;6.00;99.90;;;;;;5071281;28;20461;-76
2020/12/13 05:28:12;;;;;;;4.00;2.85;;;6.00;99.90;;;;;;5073728;28;20048;-76
2020/12/13 05:30:43;;;;;;;3.80;2.35;;;6.00;99.90;;;;;;5073606;28;20047;-75
2020/12/13 05:33:15;;;;;;;3.97;2.70;;;6.10;99.90;;;;;;5074497;28;20041;-76
2020/12/13 05:35:41;;;;;;;3.05;2.63;;;6.10;99.90;;;;;;5073424;28;20112;-76
2020/12/13 05:38:14;;;;;;;3.08;2.63;;;6.10;99.90;;;;;;5072942;28;20108;-75
2020/12/13 05:40:41;;;;;;;4.07;2.40;;;6.10;99.90;;;;;;5073553;28;20033;-76
2020/12/13 05:43:21;;;;;;;2.78;2.10;;;6.00;99.90;;;;;;5074443;28;20074;-76
2020/12/13 05:48:48;;;;;;;2.40;1.95;;;6.10;99.90;;;;;;5081737;28;20039;-76
2020/12/13 05:53:46;;;;;;;1.92;1.77;;;6.10;99.90;;;;;;5082197;28;20020;-75
2020/12/13 05:56:12;;;;;;;1.73;1.63;;;6.10;99.90;;;;;;5081775;28;20073;-75
2020/12/13 05:58:37;;;;;;;1.75;1.65;;;6.10;99.90;;;;;;5080694;28;20028;-75
2020/12/13 06:01:05;;;;;;;2.10;1.90;;;6.20;99.90;;;;;;5082644;28;20035;-75
2020/12/13 06:03:36;;;;;;;1.80;1.70;;;6.10;99.90;;;;;;5083310;28;20029;-73
2020/12/13 06:06:10;;;;;;;2.60;2.00;;;6.20;99.90;;;;;;5082489;28;20431;-76
2020/12/13 06:09:06;;;;;;;2.40;1.67;;;6.20;99.90;;;;;;5082775;28;20028;-75
2020/12/13 06:11:39;;;;;;;1.13;1.02;;;6.20;99.90;;;;;;5076647;28;20067;-74
2020/12/13 06:14:10;;;;;;;1.77;1.67;;;6.20;99.90;;;;;;5070666;28;20024;-75
2020/12/13 06:16:36;;;;;;;1.85;1.65;;;6.20;99.90;;;;;;5093117;28;20020;-75
2020/12/13 06:19:04;;;;;;;1.90;1.60;;;6.30;99.90;;;;;;5094189;28;20020;-75
2020/12/13 06:21:30;;;;;;;1.77;1.65;;;6.30;99.90;;;;;;5093713;28;20032;-75
2020/12/13 06:23:57;;;;;;;3.63;1.85;;;6.30;99.90;;;;;;5093093;28;20024;-76
2020/12/13 06:26:23;;;;;;;2.75;1.50;;;6.30;99.90;;;;;;5093842;28;20514;-75
2020/12/13 06:28:51;;;;;;;1.35;1.25;;;6.30;99.90;;;;;;5092554;28;20052;-76
2020/12/13 06:31:18;;;;;;;2.63;1.60;;;6.30;99.90;;;;;;5093578;28;20035;-75
2020/12/13 06:33:44;;;;;;;2.28;1.80;;;6.30;99.90;;;;;;5092581;28;20024;-76
2020/12/13 06:36:12;;;;;;;2.85;1.88;;;6.30;99.90;;;;;;5093513;28;20517;-76
2020/12/13 06:38:40;;;;;;;2.63;1.85;;;6.30;99.90;;;;;;5092029;28;20074;-75
2020/12/13 06:41:10;;;;;;;1.90;1.80;;;6.30;99.90;;;;;;5093299;28;20024;-75
2020/12/13 06:43:41;;;;;;;2.72;2.00;;;6.30;99.90;;;;;;5092846;28;20032;-75
2020/12/13 06:46:11;;;;;;;1.60;1.38;;;6.30;99.90;;;;;;5093535;28;20036;-76
2020/12/13 06:48:36;;;;;;;3.95;2.00;;;6.30;99.90;;;;;;5092677;28;20028;-75
2020/12/13 06:51:07;;;;;;;2.10;1.65;;;6.30;99.90;;;;;;5092903;28;20039;-76
2020/12/13 06:53:35;;;;;;;1.70;1.60;;;6.20;99.90;;;;;;5092327;28;20069;-74
2020/12/13 06:56:11;;;;;;;2.85;1.73;;;6.30;99.90;;;;;;5093115;28;20032;-76
2020/12/13 06:58:48;;;;;;;2.35;1.67;;;6.30;99.90;;;;;;5092307;28;20044;-76
2020/12/13 07:01:19;;;;;;;3.10;1.80;;;6.30;99.90;;;;;;5086155;28;20376;-76
2020/12/13 07:03:46;;;;;;;1.63;1.38;;;6.30;99.90;;;;;;5089676;28;20028;-76
2020/12/13 07:06:30;;;;;;;1.52;1.38;;;6.30;99.90;;;;;;5086701;28;20071;-75
2020/12/13 07:09:01;;;;;;;2.13;1.55;;;6.30;99.90;;;;;;5078793;28;20059;-78
2020/12/13 07:11:29;;;;;;;1.92;1.60;;;6.30;99.90;;;;;;5094822;28;20038;-74
2020/12/13 07:14:07;;;;;;;1.75;1.55;;;6.30;99.90;;;;;;5078052;28;20684;-75
2020/12/13 07:16:37;;;;;;;2.08;1.50;;;6.30;99.90;;;;;;5091443;28;20073;-76
2020/12/13 07:19:07;;;;;;;1.90;1.60;;;6.30;99.90;;;;;;5094248;28;20461;-76
2020/12/13 07:21:34;;;;;;;1.45;1.35;;;6.20;99.90;;;;;;5088620;28;20063;-74
2020/12/13 07:24:00;;;;;;;1.45;1.13;;;6.30;99.90;;;;;;5094914;28;20031;-76
2020/12/13 07:26:28;;;;;;;2.30;1.95;;;6.20;99.90;;;;;;5088417;28;20103;-76
2020/12/13 07:28:54;;;;;;;1.75;1.30;;;6.20;99.90;;;;;;5080330;28;20043;-80
2020/12/13 07:31:21;;;;;;;1.60;1.38;;;6.20;99.90;;;;;;5081323;28;20028;-77
2020/12/13 07:33:47;;;;;;;4.07;2.22;;;6.20;99.90;;;;;;5086095;28;20154;-78
2020/12/13 07:36:13;;;;;;;2.67;1.58;;;6.20;99.90;;;;;;5080894;28;20023;-78
2020/12/13 07:38:40;;;;;;;2.58;1.67;;;6.20;99.90;;;;;;5080504;28;20024;-74
2020/12/13 07:41:17;;;;;;;2.63;1.65;;;6.20;99.90;;;;;;5083436;28;20518;-78
2020/12/13 07:43:53;;;;;;;2.22;1.52;;;6.30;99.90;;;;;;5076139;28;20023;-76
2020/12/13 07:46:19;;;;;;;2.28;1.52;;;6.30;99.90;;;;;;5081449;28;20040;-77
2020/12/13 07:48:44;;;;;;;2.08;1.50;;;6.30;99.90;;;;;;5078375;28;20024;-81
2020/12/13 07:51:11;;;;;;;1.73;1.45;;;6.30;99.90;;;;;;5080905;28;20035;-74
2020/12/13 07:53:36;;;;;;;3.83;1.17;;;6.30;99.90;;;;;;5081532;28;20442;-74
2020/12/13 07:56:02;;;;;;;2.17;1.58;;;6.20;99.90;;;;;;5079015;28;20027;-76
2020/12/13 07:58:28;;;;;;;2.30;1.70;;;6.20;99.90;;;;;;5062031;28;20788;-73
2020/12/13 08:01:07;;;;;;;2.85;1.63;;;6.20;99.90;;;;;;5075879;28;20024;-76
2020/12/13 08:03:46;;;;;;;3.25;1.90;;;6.10;99.90;;;;;;5105356;28;20533;-74
2020/12/13 08:06:14;;;;;;;2.55;1.80;;;6.10;99.90;;;;;;5077044;28;20036;-76
2020/12/13 08:08:44;;;;;;;2.00;1.83;;;6.10;99.90;;;;;;5090874;28;20028;-75
2020/12/13 08:11:11;;;;;;;2.65;1.98;;;6.00;99.90;;;;;;5091324;28;20536;-78
2020/12/13 08:13:48;;;;;;;4.10;2.08;;;6.00;99.90;;;;;;5091199;28;20153;-80
2020/12/13 08:16:15;;;;;;;3.88;2.22;;;6.00;99.90;;;;;;5091973;28;20020;-76
2020/12/13 08:18:46;;;;;;;3.15;2.45;;;6.00;99.90;;;;;;5090737;28;20028;-78
2020/12/13 08:21:26;;;;;;;2.90;2.40;;;6.00;99.90;;;;;;5091898;28;20062;-78
2020/12/13 08:23:56;;;;;;;4.75;2.70;;;6.00;99.90;;;;;;5090992;28;20032;-78
2020/12/13 08:26:22;;;;;;;4.68;2.90;;;6.00;99.90;;;;;;5087933;28;20032;-77
2020/12/13 08:28:51;;;;;;;2.92;2.63;;;6.00;99.90;;;;;;5089917;28;20044;-80
2020/12/13 08:31:22;;;;;;;3.03;2.35;;;6.00;99.90;;;;;;5091463;28;20382;-81
2020/12/13 08:33:47;;;;;;;2.90;2.00;;;6.00;99.90;;;;;;5091308;28;20027;-81
2020/12/13 08:36:20;;;;;;;2.55;2.00;;;6.00;99.90;;;;;;5091875;28;20099;-78
2020/12/13 08:38:59;;;;;;;3.13;2.30;;;6.00;99.90;;;;;;5090653;28;20038;-83
2020/12/13 08:41:24;;;;;;;2.95;2.53;;;6.00;99.90;;;;;;5092100;28;20457;-76
2020/12/13 08:43:50;;;;;;;2.58;2.38;;;6.00;99.90;;;;;;5091371;28;20024;-75
2020/12/13 08:46:31;;;;;;;3.22;2.53;;;6.00;99.90;;;;;;5071623;28;20031;-79
2020/12/13 08:48:57;;;;;;;3.00;2.42;;;6.00;99.90;;;;;;5081437;28;20020;-78
2020/12/13 08:51:26;;;;;;;4.00;2.30;;;6.00;99.90;;;;;;5073819;28;20033;-82
2020/12/13 08:53:57;;;;;;;3.53;2.70;;;6.00;99.90;;;;;;5068982;28;20498;-78
2020/12/13 08:56:33;;;;;;;3.58;2.95;;;6.10;99.90;;;;;;5065918;28;20135;-80
2020/12/13 08:58:59;;;;;;;5.45;3.13;;;6.10;99.90;;;;;;5069608;28;20583;-80
2020/12/13 09:04:23;;;;;;;7.47;3.50;;;6.20;99.90;;;;;;5085517;28;20040;-80
2020/12/13 09:06:57;;;;;;;3.92;3.08;;;6.30;99.90;;;;;;5091949;28;20035;-82
2020/12/13 09:09:27;;;;;;;3.35;3.00;;;6.30;99.90;;;;;;5091742;28;20055;-81
2020/12/13 09:11:53;;;;;;;3.40;3.10;;;6.30;99.90;;;;;;5090277;28;20379;-81
2020/12/13 09:14:30;;;;;;;3.72;3.33;;;6.40;99.90;;;;;;5092405;28;20024;-82
2020/12/13 09:16:55;;;;;;;5.28;3.60;;;6.40;99.90;;;;;;5091850;28;20053;-81
2020/12/13 09:19:21;;;;;;;6.22;3.40;;;6.50;99.90;;;;;;5094234;28;20137;-83
2020/12/13 09:21:47;;;;;;;5.07;2.78;;;6.50;99.90;;;;;;5081742;28;20025;-84
2020/12/13 09:24:14;;;;;;;3.17;2.72;;;6.60;99.90;;;;;;5092311;28;20020;-85
2020/12/13 09:26:39;;;;;;;3.38;2.78;;;6.60;99.90;;;;;;5089958;28;20148;-77
2020/12/13 09:29:05;;;;;;;3.70;3.33;;;6.60;99.90;;;;;;5091324;28;20073;-85
2020/12/13 09:31:31;;;;;;;4.20;3.15;;;6.70;99.90;;;;;;5094314;28;20142;-84
2020/12/13 09:33:57;;;;;;;3.60;2.95;;;6.70;99.90;;;;;;5083737;28;20616;-80
2020/12/13 09:36:23;;;;;;;5.90;3.03;;;6.80;99.90;;;;;;5094024;28;20016;-81
2020/12/13 09:38:48;;;;;;;3.50;2.72;;;6.90;99.90;;;;;;5092879;28;20031;-79
2020/12/13 09:41:21;;;;;;;5.25;3.15;;;6.90;99.90;;;;;;5093838;28;20504;-86
2020/12/13 09:43:47;;;;;;;7.13;4.07;;;6.90;99.90;;;;;;5091933;28;20028;-84
2020/12/13 09:46:17;;;;;;;12.77;7.75;;;7.00;99.90;;;;;;5094044;28;20479;-88
2020/12/13 09:48:42;;;;;;;8.67;4.50;;;7.10;99.90;;;;;;5075583;28;20047;-80
2020/12/13 09:51:08;;;;;;;7.97;3.33;;;7.10;99.90;;;;;;5093603;28;20133;-79
2020/12/13 09:53:33;;;;;;;3.72;3.38;;;7.20;99.90;;;;;;5093658;28;20051;-79
2020/12/13 09:55:59;;;;;;;4.35;3.30;;;7.20;99.90;;;;;;5087395;28;20841;-80
2020/12/13 09:58:25;;;;;;;4.60;3.88;;;7.20;99.90;;;;;;5081311;28;20024;-78
2020/12/13 10:00:50;;;;;;;3.60;3.30;;;7.30;99.90;;;;;;5092519;28;20051;-79
2020/12/13 10:03:16;;;;;;;3.70;3.08;;;7.30;99.90;;;;;;5093285;28;20026;-77
2020/12/13 10:06:18;;;;;;;5.35;3.45;;;7.40;99.90;;;;;;5091933;28;20354;-78
2020/12/13 10:11:12;;;;;;;4.03;3.05;;;7.60;99.90;;;;;;5093840;28;20561;-85
2020/12/13 10:13:38;;;;;;;4.38;3.10;;;7.60;99.90;;;;;;5091739;28;20103;-77
2020/12/13 10:16:03;;;;;;;3.97;2.55;;;7.60;99.90;;;;;;5093070;28;20488;-80
2020/12/13 10:18:29;;;;;;;3.58;2.58;;;7.60;99.90;;;;;;5093063;28;20019;-80
2020/12/13 10:20:58;;;;;;;3.88;2.65;;;7.70;99.90;;;;;;5092381;28;20380;-83
2020/12/13 10:23:25;;;;;;;3.10;2.40;;;7.70;99.90;;;;;;5093277;28;20020;-80
2020/12/13 10:25:50;;;;;;;9.77;2.58;;;7.80;99.90;;;;;;5089062;28;20262;-79
2020/12/13 10:28:16;;;;;;;2.85;2.17;;;7.80;99.90;;;;;;5071250;28;20048;-79
2020/12/13 10:30:42;;;;;;;4.47;2.40;;;7.80;99.90;;;;;;5092278;28;20115;-77
2020/12/13 10:33:07;;;;;;;3.17;2.15;;;7.80;99.90;;;;;;5093117;28;20471;-82
2020/12/13 10:35:38;;;;;;;3.20;2.22;;;7.80;99.90;;;;;;5080242;28;20024;-86
2020/12/13 10:38:04;;;;;;;3.72;2.67;;;7.80;99.90;;;;;;5093139;28;20040;-83
2020/12/13 10:40:29;;;;;;;4.32;2.10;;;7.80;99.90;;;;;;5083226;28;20066;-82
2020/12/13 10:42:55;;;;;;;3.53;2.17;;;7.80;99.90;;;;;;5091725;28;20033;-81
2020/12/13 10:45:21;;;;;;;2.85;1.30;;;7.90;99.90;;;;;;5092797;28;20456;-77
2020/12/13 10:47:46;;;;;;;2.90;1.40;;;7.90;99.90;;;;;;5091790;28;20031;-78
2020/12/13 10:50:12;;;;;;;2.67;1.50;;;8.00;99.90;;;;;;5092759;28;20040;-78
2020/12/13 10:52:38;;;;;;;1.77;1.30;;;8.00;99.90;;;;;;5092812;28;20402;-78
2020/12/13 10:55:03;;;;;;;3.08;1.35;;;8.10;98.40;;;;;;5083493;28;20053;-80
2020/12/13 10:57:29;;;;;;;3.70;1.40;;;8.20;98.20;;;;;;5079220;28;20442;-81
2020/12/13 10:59:54;;;;;;;3.17;1.27;;;8.20;96.90;;;;;;5090552;28;20468;-83
2020/12/13 11:02:20;;;;;;;2.10;0.98;;;8.30;99.00;;;;;;5093271;28;20024;-81
2020/12/13 11:04:46;;;;;;;1.83;0.77;;;8.40;94.70;;;;;;5094116;28;20020;-82
2020/12/13 11:07:11;;;;;;;1.95;0.93;;;8.60;90.50;;;;;;5091315;28;20102;-84
2020/12/13 11:09:37;;;;;;;2.10;0.95;;;8.70;91.40;;;;;;5081317;28;20114;-83
2020/12/13 11:12:02;;;;;;;0.90;0.70;;;8.80;90.40;;;;;;5092398;28;20350;-84
2020/12/13 11:14:28;;;;;;;1.23;0.70;;;8.80;92.30;;;;;;5092402;28;20035;-85
2020/12/13 11:16:54;;;;;;;2.92;1.17;;;8.80;85.80;;;;;;5081866;28;20024;-83
2020/12/13 11:19:19;;;;;;;1.88;0.93;;;8.80;90.40;;;;;;5082765;28;20035;-82
2020/12/13 11:21:46;;;;;;;1.55;0.90;;;8.70;86.60;;;;;;5076761;28;20016;-83
2020/12/13 11:24:11;;;;;;;1.52;0.63;;;8.60;91.60;;;;;;5090558;28;20028;-84
2020/12/13 11:26:37;;;;;;;1.17;0.63;;;8.60;93.60;;;;;;5078453;28;20164;-83
2020/12/13 11:29:03;;;;;;;3.85;1.40;;;8.60;93.40;;;;;;5089977;28;20036;-81
2020/12/13 11:31:29;;;;;;;1.92;1.15;;;8.50;93.90;;;;;;5091762;28;20039;-80
2020/12/13 11:33:54;;;;;;;4.55;1.48;;;8.50;96.70;;;;;;5091065;28;20020;-80
2020/12/13 11:36:20;;;;;;;2.95;1.83;;;8.50;98.50;;;;;;5092008;28;20028;-88
2020/12/13 11:38:46;;;;;;;1.92;0.93;;;8.50;97.80;;;;;;5091331;28;20024;-85
2020/12/13 11:41:13;;;;;;;2.65;1.60;;;8.40;97.10;;;;;;5079718;28;20465;-84
2020/12/13 11:43:38;;;;;;;3.17;1.38;;;8.40;95.50;;;;;;5089724;28;20519;-80
2020/12/13 11:46:04;;;;;;;1.45;1.20;;;8.30;95.50;;;;;;5075667;28;20104;-80
2020/12/13 11:48:30;;;;;;;5.90;1.83;;;8.20;94.70;;;;;;5091360;28;20073;-78
2020/12/13 11:50:55;;;;;;;1.13;1.00;;;8.20;95.50;;;;;;5090750;28;20102;-80
2020/12/13 11:53:24;;;;;;;2.45;1.20;;;8.10;94.80;;;;;;5091789;28;20032;-82
2020/12/13 11:55:54;;;;;;;2.05;1.30;;;8.00;93.40;;;;;;5086007;28;20063;-79
2020/12/13 11:58:20;;;;;;;4.57;1.40;;;8.00;96.00;;;;;;5090196;28;20020;-79
2020/12/13 12:00:47;;;;;;;2.00;1.17;;;8.00;97.60;;;;;;5090257;28;20366;-77
2020/12/13 12:03:12;;;;;;;3.17;1.42;;;7.90;95.70;;;;;;5079249;28;20107;-78
2020/12/13 12:05:38;;;;;;;2.70;1.20;;;7.90;95.70;;;;;;5090790;28;20153;-80
2020/12/13 12:08:04;;;;;;;3.38;1.30;;;7.90;97.00;;;;;;5053512;28;20470;-77
2020/12/13 12:10:29;;;;;;;2.05;1.27;;;7.80;98.00;;;;;;5073465;28;20033;-81
2020/12/13 12:12:55;;;;;;;5.15;1.13;;;7.90;96.50;;;;;;5073157;28;20462;-86
2020/12/13 12:15:20;;;;;;;2.55;1.10;;;7.80;96.70;;;;;;5055348;28;20112;-80
2020/12/13 12:17:46;;;;;;;4.85;1.20;;;7.80;96.40;;;;;;5070927;28;20035;-77
2020/12/13 12:20:17;;;;;;;3.22;1.25;;;7.80;96.60;;;;;;5071850;28;20032;-83
2020/12/13 12:22:45;;;;;;;2.78;1.20;;;7.80;96.60;;;;;;5053477;28;20035;-76
2020/12/13 12:25:11;;;;;;;3.85;1.10;;;7.80;97.70;;;;;;5070600;28;20033;-79
2020/12/13 12:27:36;;;;;;;2.70;1.10;;;7.80;96.00;;;;;;5068260;28;20048;-84
2020/12/13 12:30:05;;;;;;;1.80;1.05;;;7.80;96.90;;;;;;5076676;28;20050;-81
2020/12/13 12:32:32;;;;;;;2.72;1.17;;;7.80;99.90;;;;;;5105633;28;20032;-77
2020/12/13 12:34:58;;;;;;;3.75;1.15;;;7.80;99.90;;;;;;5111327;28;20023;-77
2020/12/13 12:37:24;;;;;;;1.95;1.10;;;7.80;98.30;;;;;;5116316;28;20028;-83
2020/12/13 12:39:50;;;;;;;2.10;1.00;;;7.90;96.70;;;;;;5116058;28;20031;-79
2020/12/13 12:42:16;;;;;;;2.60;1.02;;;7.80;96.30;;;;;;5116332;28;20027;-77
2020/12/13 12:44:45;;;;;;;2.33;1.00;;;7.80;97.80;;;;;;5101552;28;20458;-82
2020/12/13 12:47:11;;;;;;;2.40;1.17;;;7.90;96.20;;;;;;5087239;28;20046;-79
2020/12/13 12:49:37;;;;;;;1.90;0.90;;;7.80;94.60;;;;;;5060756;28;20025;-78
2020/12/13 12:52:03;;;;;;;2.13;1.00;;;7.80;94.10;;;;;;5090419;28;20104;-83
2020/12/13 12:54:29;;;;;;;2.10;0.82;;;7.80;94.10;;;;;;5096999;28;20457;-83
2020/12/13 12:56:55;;;;;;;2.85;1.20;;;7.80;93.90;;;;;;5076546;28;20039;-84
2020/12/13 12:59:37;;;;;;;1.75;1.20;;;7.80;95.20;;;;;;5075346;28;20519;-81
2020/12/13 13:02:03;;;;;;;1.88;0.82;;;7.80;96.30;;;;;;5064486;28;20056;-76
2020/12/13 13:04:34;;;;;;;2.15;1.30;;;7.70;96.40;;;;;;5088603;28;20032;-80
2020/12/13 13:07:14;;;;;;;2.22;1.48;;;7.70;97.90;;;;;;5081318;28;20500;-81
2020/12/13 13:10:03;;;;;;;4.15;1.52;;;7.70;98.50;;;;;;5075391;28;20373;-85
2020/12/13 13:12:29;;;;;;;3.67;1.73;;;7.70;97.70;;;;;;5057044;28;20106;-80